Aeroporto :







RITROVATECI SU...

 
LOGIN :

Iscrizione | Disclaimer

   EN    FR    IT 

 









Sommario :    VFR   VFR Marginale   IFR   IFR Intensivo   IFR Molto Intensivo
Visibilità : 
Base nubi : 
>= 8 km
>= 3000ft
5 / 8 km
1000 / 3000 ft
1500m / 5 km
500 / 1000 ft
800 / 1500m
200 / 500 ft
< 800m
< 200 ft
Simboli :   Temporali  Nebbia  Neve Forte  Precipitazioni Forti  Vento > 20 kt






- Altitudine del aeroporto : 522 ft
- Codice IATA : YBG


CYBG - CFB Bagotville

ULTIMO METAR :
  • 260300Z 00000KT 25SM OVC030 16/14 A3002 RMK SC8 SLP168

METARs OBSOLETI :
  • 260200Z 07003KT 25SM OVC035 17/14 A3003 RMK SC8 SLP172
  • 260100Z 24003KT 25SM OVC035 18/12 A3002 RMK SC8 SLP170

TAF TAF CYBG
Valido dal 26 a 00 ore il 27 a 00 ore UTC


252330Z 2600/2624 23008KT P6SM OVC050
BECMG 2600/2602 VRB03KT
FM261100 VRB03KT P6SM BKN060 OVC150
FM261500 30008KT P6SM SCT050 BKN110 OVC160
TEMPO 2615/2619 P6SM -SHRA
BECMG 2617/2619 07008KT
FM261900 06008KT P6SM -SHRA BKN040 OVC130
PROB30 2619/2623 VRB15G25KT 2SM TSRA BR OVC040CB RMK NXT FCST BY 260600Z
FIR CZUL / America del Nord



MetMap, La meteo Aeronautica in un colpo d'occhio ! - Copyright ORBIFLY Dicembre 2007 - Disclaimer

ORBIFLY MET'MAP TEAM :

Programmazione e sviluppo : Alexandra Zaïnal
Concezione : Baudouin d'Aumeries
Aiuto per la programmazione : Marc-Olivier Méhu
Supporto tecnico e logistico : Manuel Goepfert
Aiuto per la traduzione : Arnaldo La Scala

Contatto : metmap@orbifly.com




FONTI E CREDITI :

   NOAA